Time;durP1;ratioP1;P1;durP2;ratioP2;P2;SDS_P1;SDS_P2;PMS_P1;PMS_P2;Temp;Humidity;BMP_temperature;BMP_pressure;BME280_temperature;BME280_humidity;BME280_pressure;Samples;Min_cycle;Max_cycle;Signal;HPM_P1;HPM_P2
2020/12/23 00:00:12;;;;;;;30.60;17.95;;;10.60;95.10;;;;;;5056401;28;20042;-79
2020/12/23 00:02:38;;;;;;;15.00;10.35;;;10.60;95.10;;;;;;5038461;28;20119;-79
2020/12/23 00:05:14;;;;;;;23.00;13.25;;;10.50;95.30;;;;;;5053871;28;20299;-79
2020/12/23 00:07:40;;;;;;;22.90;14.05;;;10.50;95.30;;;;;;5021261;28;20024;-78
2020/12/23 00:10:05;;;;;;;19.77;11.38;;;10.50;95.40;;;;;;5039594;28;20415;-78
2020/12/23 00:12:32;;;;;;;24.25;15.10;;;10.60;95.20;;;;;;5026201;28;20032;-78
2020/12/23 00:14:57;;;;;;;28.70;16.05;;;10.70;95.10;;;;;;5053200;28;20035;-79
2020/12/23 00:17:23;;;;;;;30.35;17.38;;;10.70;95.10;;;;;;5052466;28;20496;-79
2020/12/23 00:19:48;;;;;;;29.40;16.98;;;10.70;95.10;;;;;;5048634;28;20040;-78
2020/12/23 00:22:14;;;;;;;30.50;16.23;;;10.70;95.20;;;;;;5041111;28;20032;-78
2020/12/23 00:24:40;;;;;;;23.33;13.63;;;10.80;95.20;;;;;;5018751;28;20134;-78
2020/12/23 00:27:06;;;;;;;23.00;13.32;;;10.80;95.30;;;;;;5047324;28;20487;-78
2020/12/23 00:29:31;;;;;;;25.27;13.90;;;10.80;95.30;;;;;;5044724;28;20023;-79
2020/12/23 00:31:57;;;;;;;19.50;12.63;;;10.90;95.40;;;;;;5056031;28;20028;-79
2020/12/23 00:34:22;;;;;;;23.83;12.07;;;10.90;95.30;;;;;;5039213;28;20036;-78
2020/12/23 00:36:55;;;;;;;22.48;11.02;;;10.90;95.60;;;;;;5035376;28;20032;-78
2020/12/23 00:39:20;;;;;;;20.10;10.50;;;10.90;95.70;;;;;;5032044;28;20037;-79
2020/12/23 00:41:46;;;;;;;25.67;12.55;;;11.00;95.90;;;;;;5051136;28;20036;-78
2020/12/23 00:44:12;;;;;;;23.00;13.10;;;11.00;95.90;;;;;;5032848;28;20079;-79
2020/12/23 00:46:37;;;;;;;21.65;11.75;;;11.00;95.90;;;;;;5020026;28;20039;-79
2020/12/23 00:49:03;;;;;;;21.83;11.10;;;11.00;96.10;;;;;;5052806;28;20099;-79
2020/12/23 00:51:28;;;;;;;27.45;13.77;;;11.00;96.00;;;;;;5038328;28;20055;-79
2020/12/23 00:53:54;;;;;;;29.13;14.60;;;11.00;95.80;;;;;;5050567;28;20492;-78
2020/12/23 00:56:19;;;;;;;41.17;17.08;;;10.90;95.80;;;;;;5053924;28;20400;-78
2020/12/23 00:58:45;;;;;;;34.83;17.27;;;10.80;96.00;;;;;;5040028;28;20040;-78
2020/12/23 01:01:10;;;;;;;36.55;16.52;;;10.80;96.10;;;;;;5024654;28;20048;-78
2020/12/23 01:03:36;;;;;;;24.25;13.10;;;10.90;96.10;;;;;;5015391;28;20029;-79
2020/12/23 01:06:08;;;;;;;23.30;10.98;;;10.90;95.80;;;;;;5037445;28;20173;-79
2020/12/23 01:08:34;;;;;;;12.05;6.07;;;11.00;95.80;;;;;;5035245;28;20544;-79
2020/12/23 01:11:00;;;;;;;19.13;10.63;;;11.00;95.80;;;;;;5023233;28;20025;-78
2020/12/23 01:13:25;;;;;;;21.40;12.20;;;11.10;95.90;;;;;;5053577;28;20027;-78
2020/12/23 01:15:51;;;;;;;21.13;10.55;;;11.10;95.80;;;;;;5016431;28;20043;-78
2020/12/23 01:18:16;;;;;;;19.90;10.52;;;11.00;95.80;;;;;;5028288;28;20228;-78
2020/12/23 01:20:42;;;;;;;15.00;8.02;;;11.10;95.90;;;;;;5014342;28;20399;-78
2020/12/23 01:23:07;;;;;;;21.55;9.82;;;11.10;95.80;;;;;;5027318;28;20028;-78
2020/12/23 01:25:33;;;;;;;18.67;8.52;;;11.10;95.80;;;;;;5042582;28;20028;-78
2020/12/23 01:27:58;;;;;;;20.95;9.77;;;11.10;95.80;;;;;;5026430;28;20043;-78
2020/12/23 01:30:24;;;;;;;21.92;11.10;;;11.20;95.80;;;;;;5033364;28;20111;-78
2020/12/23 01:32:49;;;;;;;15.90;9.05;;;11.20;95.90;;;;;;5035661;28;20399;-79
2020/12/23 01:35:15;;;;;;;17.45;9.00;;;11.20;96.00;;;;;;5034319;28;20031;-78
2020/12/23 01:37:40;;;;;;;18.63;9.95;;;11.20;96.10;;;;;;5041010;28;20025;-78
2020/12/23 01:40:06;;;;;;;18.88;8.93;;;11.20;96.00;;;;;;5013194;28;20037;-78
2020/12/23 01:42:32;;;;;;;21.25;9.70;;;11.20;96.10;;;;;;5041847;28;20051;-77
2020/12/23 01:44:59;;;;;;;15.00;8.05;;;11.20;96.00;;;;;;5051146;28;20036;-78
2020/12/23 01:47:24;;;;;;;17.15;8.18;;;11.20;95.90;;;;;;5029477;28;20452;-78
2020/12/23 01:49:50;;;;;;;13.07;8.68;;;11.20;95.90;;;;;;5040481;28;20073;-79
2020/12/23 01:52:17;;;;;;;18.00;10.85;;;11.20;95.90;;;;;;5014397;28;20116;-78
2020/12/23 01:54:42;;;;;;;21.23;10.90;;;11.20;95.90;;;;;;5021941;28;20029;-78
2020/12/23 01:57:09;;;;;;;18.42;9.20;;;11.20;95.80;;;;;;5040531;28;20094;-78
2020/12/23 01:59:35;;;;;;;16.50;10.15;;;11.20;95.70;;;;;;5025246;28;20113;-79
2020/12/23 02:02:28;;;;;;;18.27;9.35;;;11.20;95.90;;;;;;5050655;28;20036;-78
2020/12/23 02:04:55;;;;;;;18.83;11.77;;;11.30;95.80;;;;;;5031928;28;20036;-78
2020/12/23 02:07:22;;;;;;;19.15;8.27;;;11.30;95.90;;;;;;5059359;28;20086;-79
2020/12/23 02:09:50;;;;;;;21.92;10.10;;;11.20;95.90;;;;;;5020519;28;20040;-79
2020/12/23 02:12:15;;;;;;;20.58;9.93;;;11.20;96.10;;;;;;5038761;28;20036;-78
2020/12/23 02:14:41;;;;;;;24.17;12.57;;;11.30;96.10;;;;;;5040124;28;20048;-78
2020/12/23 02:17:07;;;;;;;19.55;11.05;;;11.30;96.30;;;;;;5011631;28;20602;-78
2020/12/23 02:19:33;;;;;;;29.70;13.80;;;11.20;96.20;;;;;;5012244;28;20082;-78
2020/12/23 02:21:58;;;;;;;26.35;13.60;;;11.30;96.10;;;;;;5058943;28;20499;-77
2020/12/23 02:24:24;;;;;;;21.33;11.45;;;11.30;96.20;;;;;;5053817;28;20322;-77
2020/12/23 02:26:50;;;;;;;22.83;10.68;;;11.30;96.20;;;;;;5055094;28;20032;-78
2020/12/23 02:29:16;;;;;;;21.23;11.50;;;11.40;96.20;;;;;;5045208;28;20365;-78
2020/12/23 02:31:41;;;;;;;20.13;10.65;;;11.30;96.10;;;;;;5022740;28;20035;-77
2020/12/23 02:34:07;;;;;;;20.55;10.65;;;11.30;96.30;;;;;;5054662;28;20035;-78
2020/12/23 02:36:32;;;;;;;17.02;10.23;;;11.30;96.20;;;;;;5025908;28;20055;-77
2020/12/23 02:38:58;;;;;;;18.10;11.48;;;11.30;96.20;;;;;;5043887;28;20040;-78
2020/12/23 02:41:23;;;;;;;23.50;11.48;;;11.30;96.30;;;;;;5056798;28;20028;-77
2020/12/23 02:43:49;;;;;;;18.75;9.80;;;11.30;96.30;;;;;;5038357;28;20519;-78
2020/12/23 02:46:14;;;;;;;25.80;12.55;;;11.30;96.30;;;;;;5013769;28;20100;-78
2020/12/23 02:48:40;;;;;;;20.40;11.00;;;11.30;96.40;;;;;;5041962;28;20058;-78
2020/12/23 02:51:06;;;;;;;18.75;10.68;;;11.30;96.30;;;;;;5056198;28;20123;-78
2020/12/23 02:53:31;;;;;;;19.92;11.68;;;11.30;96.20;;;;;;5056197;28;20038;-78
2020/12/23 02:55:57;;;;;;;18.80;11.25;;;11.30;96.40;;;;;;5052145;28;20071;-77
2020/12/23 02:58:22;;;;;;;20.52;10.25;;;11.30;96.20;;;;;;5055405;28;20106;-78
2020/12/23 03:00:48;;;;;;;20.17;10.75;;;11.30;96.30;;;;;;5056611;28;20463;-78
2020/12/23 03:03:15;;;;;;;20.63;11.85;;;11.30;96.20;;;;;;5040776;28;20400;-78
2020/12/23 03:05:41;;;;;;;24.23;12.23;;;11.30;96.30;;;;;;5025902;28;20025;-78
2020/12/23 03:08:06;;;;;;;23.98;13.18;;;11.20;96.40;;;;;;5048176;28;20456;-78
2020/12/23 03:10:32;;;;;;;21.40;12.25;;;11.20;96.50;;;;;;5016170;28;20035;-78
2020/12/23 03:12:57;;;;;;;18.48;10.82;;;11.20;96.30;;;;;;5039112;28;20111;-78
2020/12/23 03:15:23;;;;;;;25.05;12.60;;;11.30;96.30;;;;;;5033229;28;20032;-78
2020/12/23 03:17:48;;;;;;;17.52;11.02;;;11.20;96.20;;;;;;5055851;28;20028;-78
2020/12/23 03:20:14;;;;;;;25.67;14.20;;;11.30;96.20;;;;;;5053965;28;20530;-78
2020/12/23 03:22:39;;;;;;;22.08;11.80;;;11.30;96.40;;;;;;5013156;28;20097;-78
2020/12/23 03:25:05;;;;;;;24.25;12.98;;;11.30;96.50;;;;;;5074670;28;20032;-78
2020/12/23 03:27:30;;;;;;;23.02;13.32;;;11.30;96.40;;;;;;5025350;28;20058;-78
2020/12/23 03:29:56;;;;;;;22.55;13.63;;;11.30;96.50;;;;;;5054770;28;20059;-78
2020/12/23 03:32:21;;;;;;;21.08;12.13;;;11.30;96.50;;;;;;5055944;28;20104;-78
2020/12/23 03:34:47;;;;;;;26.08;13.90;;;11.30;96.50;;;;;;5051324;28;20499;-78
2020/12/23 03:37:12;;;;;;;21.63;12.55;;;11.30;96.30;;;;;;5051199;28;20124;-78
2020/12/23 03:39:38;;;;;;;26.25;14.35;;;11.30;96.50;;;;;;5016882;28;20507;-78
2020/12/23 03:42:03;;;;;;;24.52;14.05;;;11.30;96.60;;;;;;5038987;28;20024;-78
2020/12/23 03:44:29;;;;;;;27.48;15.52;;;11.30;96.60;;;;;;5046918;28;20036;-77
2020/12/23 03:46:55;;;;;;;20.55;13.10;;;11.30;96.70;;;;;;5055504;28;20119;-84
2020/12/23 03:49:20;;;;;;;24.77;12.18;;;11.30;96.60;;;;;;5056159;28;20037;-84
2020/12/23 03:51:46;;;;;;;23.13;11.95;;;11.30;96.50;;;;;;5037589;28;20090;-84
2020/12/23 03:54:12;;;;;;;21.20;11.13;;;11.30;96.60;;;;;;5046142;28;20418;-84
2020/12/23 03:56:37;;;;;;;18.75;11.35;;;11.30;96.60;;;;;;5040423;28;20107;-78
2020/12/23 03:59:03;;;;;;;21.23;12.75;;;11.30;96.60;;;;;;5035748;28;20356;-78
2020/12/23 04:01:28;;;;;;;25.02;13.95;;;11.30;96.60;;;;;;5040361;28;20119;-78
2020/12/23 04:03:54;;;;;;;21.33;12.13;;;11.30;96.70;;;;;;5058155;28;20119;-78
2020/12/23 04:06:19;;;;;;;20.75;12.07;;;11.40;96.80;;;;;;5055979;28;20736;-78
2020/12/23 04:08:45;;;;;;;24.15;12.85;;;11.30;96.70;;;;;;5037042;28;20323;-78
2020/12/23 04:11:11;;;;;;;24.05;12.48;;;11.40;96.70;;;;;;5042221;28;20044;-78
2020/12/23 04:13:36;;;;;;;21.40;12.90;;;11.30;96.60;;;;;;5017455;28;20073;-79
2020/12/23 04:16:02;;;;;;;24.05;13.70;;;11.40;96.80;;;;;;5037362;28;20390;-79
2020/12/23 04:18:27;;;;;;;24.05;14.50;;;11.30;96.80;;;;;;5053869;28;20064;-79
2020/12/23 04:20:53;;;;;;;22.60;14.13;;;11.30;96.90;;;;;;5038101;28;20024;-77
2020/12/23 04:23:18;;;;;;;23.33;12.88;;;11.30;96.90;;;;;;5062875;28;20389;-78
2020/12/23 04:25:44;;;;;;;18.85;11.60;;;11.30;96.90;;;;;;5025942;28;20020;-78
2020/12/23 04:28:09;;;;;;;23.52;13.13;;;11.30;96.90;;;;;;5032466;28;20048;-78
2020/12/23 04:30:35;;;;;;;19.35;11.73;;;11.30;96.90;;;;;;5014261;28;20027;-78
2020/12/23 04:33:00;;;;;;;19.20;10.60;;;11.30;96.90;;;;;;5041971;28;20021;-79
2020/12/23 04:35:27;;;;;;;17.05;10.80;;;11.30;97.00;;;;;;5050874;28;20028;-78
2020/12/23 04:37:53;;;;;;;19.00;11.32;;;11.30;96.90;;;;;;5056867;28;20384;-78
2020/12/23 04:40:18;;;;;;;21.95;11.48;;;11.30;96.90;;;;;;5036498;28;20032;-78
2020/12/23 04:42:44;;;;;;;21.67;11.98;;;11.30;97.00;;;;;;5024856;28;20024;-78
2020/12/23 04:45:09;;;;;;;17.00;9.45;;;11.30;97.00;;;;;;5031859;28;20094;-77
2020/12/23 04:47:36;;;;;;;20.30;10.57;;;11.30;97.00;;;;;;5012035;28;20040;-78
2020/12/23 04:50:02;;;;;;;18.92;11.00;;;11.30;97.00;;;;;;5047638;28;20032;-78
2020/12/23 04:52:34;;;;;;;13.70;9.05;;;11.30;96.90;;;;;;5033974;28;20101;-78
2020/12/23 04:55:00;;;;;;;14.77;8.27;;;11.30;96.90;;;;;;5023453;28;20051;-77
2020/12/23 04:57:27;;;;;;;18.63;9.75;;;11.30;96.90;;;;;;5014676;28;20433;-78
2020/12/23 04:59:53;;;;;;;15.75;9.32;;;11.30;97.00;;;;;;5017408;28;20054;-78
2020/12/23 05:02:18;;;;;;;16.45;9.45;;;11.30;96.90;;;;;;5027486;28;20029;-77
2020/12/23 05:04:44;;;;;;;13.57;8.00;;;11.30;97.00;;;;;;5019065;28;20034;-78
2020/12/23 05:07:09;;;;;;;10.45;7.75;;;11.30;97.00;;;;;;5039412;28;20115;-78
2020/12/23 05:09:35;;;;;;;13.00;7.65;;;11.30;96.90;;;;;;5037675;28;20024;-78
2020/12/23 05:12:00;;;;;;;15.55;8.00;;;11.40;97.00;;;;;;5024760;28;20376;-78
2020/12/23 05:14:27;;;;;;;13.98;7.63;;;11.30;96.90;;;;;;5020071;28;20024;-79
2020/12/23 05:16:52;;;;;;;15.52;8.05;;;11.30;97.10;;;;;;5053096;28;20037;-78
2020/12/23 05:19:18;;;;;;;13.02;6.85;;;11.30;97.10;;;;;;5032945;28;20462;-78
2020/12/23 05:21:44;;;;;;;16.13;7.70;;;11.30;97.10;;;;;;5023972;28;20028;-79
2020/12/23 05:24:10;;;;;;;9.40;6.20;;;11.30;97.10;;;;;;5029519;28;20262;-79
2020/12/23 05:26:39;;;;;;;9.15;6.00;;;11.30;97.20;;;;;;5041265;28;20033;-78
2020/12/23 05:29:04;;;;;;;6.57;5.13;;;11.30;97.20;;;;;;5035625;28;20483;-79
2020/12/23 05:31:31;;;;;;;8.13;4.93;;;11.30;97.20;;;;;;5040127;28;20059;-79
2020/12/23 05:33:58;;;;;;;6.30;3.47;;;11.30;97.20;;;;;;5018453;28;20559;-78
2020/12/23 05:36:24;;;;;;;6.47;4.63;;;11.40;97.20;;;;;;5058587;28;20439;-78
2020/12/23 05:38:50;;;;;;;11.75;5.60;;;11.30;97.20;;;;;;5029190;28;20036;-78
2020/12/23 05:41:15;;;;;;;6.80;4.78;;;11.30;97.20;;;;;;5056949;28;20048;-78
2020/12/23 05:43:42;;;;;;;6.50;4.47;;;11.30;97.10;;;;;;5018442;28;20036;-78
2020/12/23 05:46:08;;;;;;;7.38;5.28;;;11.30;97.10;;;;;;5029221;28;20072;-78
2020/12/23 05:48:35;;;;;;;6.13;4.32;;;11.30;97.20;;;;;;5026491;28;20055;-77
2020/12/23 05:51:01;;;;;;;8.50;4.78;;;11.30;97.50;;;;;;5043437;28;20047;-77
2020/12/23 05:53:27;;;;;;;7.05;4.85;;;11.20;97.20;;;;;;5033698;28;20467;-78
2020/12/23 05:55:53;;;;;;;5.93;4.25;;;11.30;97.10;;;;;;5026644;28;20039;-77
2020/12/23 05:58:29;;;;;;;6.13;4.60;;;11.30;97.10;;;;;;5046084;28;20025;-77
2020/12/23 06:00:56;;;;;;;7.90;4.82;;;11.30;97.30;;;;;;5040092;28;20519;-79
2020/12/23 06:04:00;;;;;;;5.95;4.43;;;11.30;97.00;;;;;;5029419;28;20056;-79
2020/12/23 06:06:29;;;;;;;5.00;4.38;;;11.30;97.00;;;;;;5063593;28;20086;-79
2020/12/23 06:08:56;;;;;;;5.93;3.97;;;11.30;96.90;;;;;;5012088;28;20036;-79
2020/12/23 06:11:27;;;;;;;5.57;3.83;;;11.30;96.90;;;;;;5014146;28;20033;-79
2020/12/23 06:13:59;;;;;;;5.20;3.45;;;11.30;96.80;;;;;;5076180;28;20020;-79
2020/12/23 06:16:32;;;;;;;4.28;3.58;;;11.30;97.00;;;;;;5075884;28;20033;-78
2020/12/23 06:18:59;;;;;;;4.35;3.45;;;11.30;97.00;;;;;;5017654;28;20076;-79
2020/12/23 06:21:26;;;;;;;4.63;3.05;;;11.30;96.90;;;;;;5039549;28;20047;-79
2020/12/23 06:24:10;;;;;;;5.25;3.70;;;11.30;97.00;;;;;;5048835;28;20523;-78
2020/12/23 06:26:38;;;;;;;4.20;3.20;;;11.30;97.00;;;;;;5027127;28;20028;-78
2020/12/23 06:29:05;;;;;;;5.70;3.65;;;11.30;96.90;;;;;;5039478;28;20028;-78
2020/12/23 06:31:56;;;;;;;3.65;3.05;;;11.30;97.10;;;;;;5031296;28;20035;-78
2020/12/23 06:34:23;;;;;;;5.50;3.30;;;11.20;97.00;;;;;;5069176;28;20539;-78
2020/12/23 06:36:49;;;;;;;4.35;3.33;;;11.20;97.00;;;;;;5015376;28;20056;-78
2020/12/23 06:39:31;;;;;;;6.43;3.88;;;11.20;97.10;;;;;;5023007;28;20495;-78
2020/12/23 06:42:00;;;;;;;3.92;3.53;;;11.20;97.10;;;;;;5038313;28;20471;-79
2020/12/23 06:44:46;;;;;;;6.28;4.28;;;11.20;97.20;;;;;;5068301;28;20039;-78
2020/12/23 06:47:12;;;;;;;4.28;3.45;;;11.20;97.10;;;;;;5016602;28;20036;-78
2020/12/23 06:49:52;;;;;;;4.68;3.75;;;11.20;97.10;;;;;;5027245;28;20025;-79
2020/12/23 06:52:23;;;;;;;8.02;4.78;;;11.20;97.10;;;;;;5035852;28;20028;-78
2020/12/23 06:54:54;;;;;;;4.78;3.97;;;11.20;97.20;;;;;;5074264;28;20123;-77
2020/12/23 06:57:49;;;;;;;6.00;4.10;;;11.30;97.20;;;;;;5046450;28;20041;-78
2020/12/23 07:00:15;;;;;;;7.32;5.93;;;11.20;97.20;;;;;;5038411;28;20036;-78
2020/12/23 07:02:40;;;;;;;6.53;4.78;;;11.30;97.20;;;;;;5055061;28;20612;-78
2020/12/23 07:05:13;;;;;;;5.25;3.70;;;11.20;97.30;;;;;;5046805;28;20119;-79
2020/12/23 07:07:42;;;;;;;6.55;4.93;;;11.30;97.40;;;;;;5055149;28;20032;-79
2020/12/23 07:10:20;;;;;;;6.40;4.57;;;11.30;97.50;;;;;;5047824;28;20043;-79
2020/12/23 07:13:03;;;;;;;3.88;3.03;;;11.30;97.40;;;;;;5021347;28;20039;-79
2020/12/23 07:15:33;;;;;;;5.03;4.28;;;11.30;97.40;;;;;;5035571;28;20123;-78
2020/12/23 07:18:04;;;;;;;5.32;3.72;;;11.40;97.40;;;;;;5028977;28;20021;-78
2020/12/23 07:20:56;;;;;;;8.45;4.78;;;11.30;97.50;;;;;;5038905;28;20527;-77
2020/12/23 07:23:22;;;;;;;7.10;4.18;;;11.30;97.50;;;;;;5045685;28;20037;-79
2020/12/23 07:25:52;;;;;;;6.82;4.30;;;11.30;97.40;;;;;;5026162;28;20046;-78
2020/12/23 07:28:19;;;;;;;6.25;4.50;;;11.30;97.50;;;;;;5030328;28;20082;-77
2020/12/23 07:30:45;;;;;;;9.30;4.90;;;11.30;97.50;;;;;;5036363;28;20052;-77
2020/12/23 07:33:12;;;;;;;12.18;3.75;;;11.30;97.50;;;;;;5028956;28;20171;-77
2020/12/23 07:35:38;;;;;;;4.70;3.38;;;11.40;97.50;;;;;;5051950;28;20039;-77
2020/12/23 07:38:05;;;;;;;7.28;3.22;;;11.40;97.50;;;;;;5036770;28;20028;-77
2020/12/23 07:40:31;;;;;;;5.53;3.45;;;11.40;97.50;;;;;;5031458;28;20493;-77
2020/12/23 07:42:56;;;;;;;3.70;2.80;;;11.40;97.60;;;;;;5029828;28;20032;-77
2020/12/23 07:45:22;;;;;;;3.85;2.85;;;11.40;97.60;;;;;;5015149;28;20453;-78
2020/12/23 07:48:04;;;;;;;5.78;3.08;;;11.40;97.50;;;;;;5042900;28;20044;-78
2020/12/23 07:50:31;;;;;;;3.10;2.28;;;11.40;97.60;;;;;;5043666;28;20036;-78
2020/12/23 07:52:57;;;;;;;5.25;3.00;;;11.40;97.60;;;;;;5027407;28;20033;-78
2020/12/23 07:55:23;;;;;;;6.30;3.03;;;11.40;97.60;;;;;;5029135;28;20134;-78
2020/12/23 07:57:52;;;;;;;4.57;2.17;;;11.40;97.50;;;;;;5016575;28;20575;-78
2020/12/23 08:00:19;;;;;;;4.65;2.55;;;11.40;97.60;;;;;;5039546;28;20036;-78
2020/12/23 08:02:44;;;;;;;4.78;2.53;;;11.40;97.50;;;;;;5017911;28;20388;-78
2020/12/23 08:05:12;;;;;;;3.65;2.38;;;11.40;97.60;;;;;;5017160;28;20055;-78
2020/12/23 08:07:39;;;;;;;6.85;2.88;;;11.40;97.50;;;;;;5057359;28;20105;-78
2020/12/23 08:10:08;;;;;;;5.38;2.92;;;11.40;97.60;;;;;;5023439;28;20036;-78
2020/12/23 08:12:34;;;;;;;4.43;2.92;;;11.40;97.60;;;;;;5031191;28;20155;-77
2020/12/23 08:15:00;;;;;;;4.40;2.83;;;11.40;97.60;;;;;;5023515;28;20772;-77
2020/12/23 08:17:26;;;;;;;4.75;3.08;;;11.40;97.60;;;;;;5029268;28;20403;-78
2020/12/23 08:20:10;;;;;;;6.93;2.55;;;11.40;97.60;;;;;;5045597;28;20032;-78
2020/12/23 08:22:37;;;;;;;8.30;3.55;;;11.30;97.50;;;;;;5042264;28;20039;-79
2020/12/23 08:25:07;;;;;;;3.00;2.65;;;11.40;97.50;;;;;;5020890;28;20040;-78
2020/12/23 08:27:33;;;;;;;6.15;2.60;;;11.30;97.40;;;;;;5054714;28;20032;-79
2020/12/23 08:30:00;;;;;;;6.68;2.75;;;11.40;97.40;;;;;;5042503;28;20491;-78
2020/12/23 08:32:28;;;;;;;6.60;1.92;;;11.40;97.50;;;;;;5018039;28;20035;-79
2020/12/23 08:34:53;;;;;;;4.65;2.33;;;11.40;97.40;;;;;;5042008;28;20131;-77
2020/12/23 08:37:22;;;;;;;3.70;1.92;;;11.30;97.40;;;;;;5024203;28;20123;-77
2020/12/23 08:39:58;;;;;;;1.85;1.33;;;11.30;97.40;;;;;;5019813;28;20140;-77
2020/12/23 08:42:23;;;;;;;4.22;1.65;;;11.30;97.40;;;;;;5046037;28;20094;-77
2020/12/23 08:44:50;;;;;;;3.88;1.48;;;11.30;97.50;;;;;;5014890;28;20036;-78
2020/12/23 08:47:26;;;;;;;2.08;1.35;;;11.40;97.40;;;;;;5037445;28;20033;-77
2020/12/23 08:49:53;;;;;;;2.63;1.70;;;11.40;97.30;;;;;;5036264;28;20024;-77
2020/12/23 08:52:19;;;;;;;3.63;1.80;;;11.30;97.20;;;;;;5028662;28;20061;-77
2020/12/23 08:54:45;;;;;;;2.75;1.80;;;11.30;97.50;;;;;;5033376;28;20067;-77
2020/12/23 08:57:11;;;;;;;2.13;1.42;;;11.40;97.40;;;;;;5023239;28;20060;-77
2020/12/23 08:59:40;;;;;;;3.15;1.85;;;11.40;97.40;;;;;;5037731;28;20103;-77
2020/12/23 09:02:13;;;;;;;3.17;1.85;;;11.40;97.40;;;;;;5022229;28;20035;-77
2020/12/23 09:04:38;;;;;;;1.63;1.40;;;11.40;97.40;;;;;;5019781;28;20024;-76
2020/12/23 09:07:04;;;;;;;10.70;1.92;;;11.40;97.40;;;;;;5034951;28;20025;-77
2020/12/23 09:09:29;;;;;;;2.63;1.75;;;11.40;97.30;;;;;;5017419;28;20070;-77
2020/12/23 09:11:57;;;;;;;3.53;1.50;;;11.40;97.40;;;;;;5027741;28;20391;-77
2020/12/23 09:14:23;;;;;;;3.05;1.50;;;11.40;97.30;;;;;;5027683;28;20033;-77
2020/12/23 09:16:58;;;;;;;2.35;1.13;;;11.40;97.30;;;;;;5043373;28;20028;-77
2020/12/23 09:19:42;;;;;;;3.57;1.10;;;11.40;97.20;;;;;;5041666;28;20391;-78
2020/12/23 09:22:09;;;;;;;2.22;1.80;;;11.50;97.20;;;;;;5065522;28;20423;-77
2020/12/23 09:24:34;;;;;;;3.50;1.45;;;11.50;97.40;;;;;;5051770;28;20036;-78
2020/12/23 09:27:00;;;;;;;4.10;1.38;;;11.50;97.30;;;;;;5040386;28;20043;-78
2020/12/23 09:29:40;;;;;;;2.17;1.45;;;11.50;97.30;;;;;;5021242;28;20028;-77
2020/12/23 09:32:05;;;;;;;2.13;1.30;;;11.60;97.30;;;;;;5029074;28;20111;-77
2020/12/23 09:34:31;;;;;;;2.33;1.30;;;11.60;97.20;;;;;;5032879;28;20032;-77
2020/12/23 09:36:56;;;;;;;2.33;1.27;;;11.70;97.60;;;;;;5033841;28;20157;-78
2020/12/23 09:39:22;;;;;;;3.67;1.70;;;11.70;97.50;;;;;;5027447;28;20361;-78
2020/12/23 09:42:07;;;;;;;3.53;1.30;;;11.80;97.70;;;;;;5012349;28;20032;-78
2020/12/23 09:44:37;;;;;;;3.15;1.80;;;11.80;97.40;;;;;;5048147;28;20039;-78
2020/12/23 09:47:03;;;;;;;2.33;1.52;;;11.90;97.60;;;;;;5019901;28;20077;-78
2020/12/23 09:49:28;;;;;;;2.42;1.23;;;12.00;97.60;;;;;;5021711;28;20116;-78
2020/12/23 09:51:54;;;;;;;2.38;1.33;;;12.00;97.40;;;;;;5019639;28;20024;-78
2020/12/23 09:54:20;;;;;;;1.70;1.33;;;12.00;97.30;;;;;;5012514;28;20045;-78
2020/12/23 09:56:50;;;;;;;3.72;0.90;;;12.00;97.30;;;;;;5022677;28;20033;-77
2020/12/23 09:59:15;;;;;;;1.90;1.02;;;12.10;97.30;;;;;;5045325;28;20040;-78
2020/12/23 10:01:42;;;;;;;3.53;1.17;;;12.10;97.20;;;;;;5042608;28;20528;-78
2020/12/23 10:04:07;;;;;;;2.22;1.13;;;12.10;97.20;;;;;;5023343;28;20036;-78
2020/12/23 10:06:33;;;;;;;1.55;1.23;;;12.20;97.30;;;;;;5033610;28;20036;-78
2020/12/23 10:08:58;;;;;;;3.05;0.95;;;12.20;97.10;;;;;;5043843;28;20047;-78
2020/12/23 10:11:24;;;;;;;1.10;0.90;;;12.20;97.20;;;;;;5032267;28;20040;-77
2020/12/23 10:13:50;;;;;;;1.20;0.80;;;12.20;97.10;;;;;;5018024;28;20037;-78
2020/12/23 10:16:15;;;;;;;1.58;0.90;;;12.30;97.20;;;;;;5029356;28;20063;-78
2020/12/23 10:18:41;;;;;;;2.20;1.13;;;12.30;97.10;;;;;;5045806;28;20032;-78
2020/12/23 10:21:06;;;;;;;5.10;1.05;;;12.30;97.10;;;;;;5009545;28;20043;-77
2020/12/23 10:23:32;;;;;;;0.88;0.70;;;12.30;97.10;;;;;;5031437;28;20478;-77
2020/12/23 10:25:57;;;;;;;0.75;0.68;;;12.30;97.00;;;;;;5041205;28;20036;-77
2020/12/23 10:28:25;;;;;;;2.25;1.20;;;12.30;97.00;;;;;;5032126;28;20032;-78
2020/12/23 10:30:50;;;;;;;3.20;0.88;;;12.30;97.20;;;;;;5015416;28;20030;-78
2020/12/23 10:33:16;;;;;;;2.15;0.80;;;12.30;97.10;;;;;;5021932;28;20459;-78
2020/12/23 10:35:41;;;;;;;1.85;0.90;;;12.30;97.00;;;;;;5039418;28;20024;-78
2020/12/23 10:38:07;;;;;;;2.75;1.05;;;12.40;97.10;;;;;;5011931;28;20361;-78
2020/12/23 10:40:33;;;;;;;1.25;0.80;;;12.40;97.10;;;;;;5017417;28;20033;-78
2020/12/23 10:42:58;;;;;;;1.83;1.00;;;12.40;97.00;;;;;;5022290;28;20036;-78
2020/12/23 10:45:24;;;;;;;1.83;1.17;;;12.40;97.10;;;;;;5038019;28;20040;-78
2020/12/23 10:47:49;;;;;;;1.48;1.08;;;12.50;96.70;;;;;;5028369;28;20090;-78
2020/12/23 10:50:15;;;;;;;4.75;0.88;;;12.50;97.00;;;;;;5031456;28;20121;-78
2020/12/23 10:52:40;;;;;;;2.17;0.95;;;12.50;96.80;;;;;;5026275;28;20119;-78
2020/12/23 10:55:06;;;;;;;3.47;0.80;;;12.50;96.80;;;;;;5017030;28;20031;-78
2020/12/23 10:57:33;;;;;;;1.33;0.85;;;12.50;96.70;;;;;;5029470;28;20105;-78
2020/12/23 10:59:59;;;;;;;0.60;0.55;;;12.50;96.70;;;;;;5030498;28;20025;-79
2020/12/23 11:02:25;;;;;;;1.35;0.70;;;12.50;96.70;;;;;;5032767;28;20040;-78
2020/12/23 11:04:50;;;;;;;0.75;0.50;;;12.60;96.70;;;;;;5014008;28;20035;-78
2020/12/23 11:07:16;;;;;;;1.13;0.68;;;12.60;96.60;;;;;;5008187;28;20036;-78
2020/12/23 11:09:42;;;;;;;1.10;0.57;;;12.60;96.60;;;;;;5039957;28;20103;-77
2020/12/23 11:12:07;;;;;;;2.05;1.00;;;12.60;96.50;;;;;;5010722;28;20040;-78
2020/12/23 11:14:33;;;;;;;2.25;0.93;;;12.60;96.60;;;;;;5041195;28;20554;-77
2020/12/23 11:16:58;;;;;;;0.88;0.65;;;12.60;96.50;;;;;;5034285;28;20028;-78
2020/12/23 11:19:24;;;;;;;2.45;0.60;;;12.60;96.30;;;;;;5029547;28;20119;-78
2020/12/23 11:21:49;;;;;;;0.80;0.68;;;12.60;96.40;;;;;;5032196;28;20033;-78
2020/12/23 11:24:15;;;;;;;0.95;0.73;;;12.60;96.40;;;;;;5020950;28;20035;-78
2020/12/23 11:26:41;;;;;;;0.60;0.50;;;12.80;96.60;;;;;;5040175;28;20032;-78
2020/12/23 11:29:06;;;;;;;1.23;0.57;;;12.60;96.30;;;;;;5025060;28;20089;-78
2020/12/23 11:31:33;;;;;;;2.00;0.57;;;12.70;96.30;;;;;;5027979;28;20035;-78
2020/12/23 11:33:59;;;;;;;1.90;0.80;;;12.70;96.30;;;;;;5024644;28;20162;-77
2020/12/23 11:36:24;;;;;;;1.02;0.70;;;12.70;96.20;;;;;;5016943;28;20151;-78
2020/12/23 11:38:50;;;;;;;1.63;0.60;;;12.70;96.20;;;;;;5029474;28;20051;-77
2020/12/23 11:41:15;;;;;;;2.38;0.65;;;12.80;96.30;;;;;;5040834;28;20035;-79
2020/12/23 11:43:41;;;;;;;5.15;0.82;;;12.80;96.10;;;;;;5035926;28;20051;-78
2020/12/23 11:46:07;;;;;;;2.70;0.77;;;12.80;96.10;;;;;;5026954;28;20033;-78
2020/12/23 11:48:34;;;;;;;1.55;0.52;;;12.80;96.30;;;;;;5021495;28;20032;-78
2020/12/23 11:50:59;;;;;;;2.75;0.60;;;12.80;96.30;;;;;;5025341;28;20058;-77
2020/12/23 11:53:25;;;;;;;3.33;0.50;;;12.70;96.20;;;;;;5024081;28;20441;-78
2020/12/23 11:55:51;;;;;;;1.75;0.75;;;12.70;96.30;;;;;;5037848;28;20029;-78
2020/12/23 11:58:16;;;;;;;0.70;0.50;;;12.70;96.20;;;;;;5018593;28;20044;-78
2020/12/23 12:00:42;;;;;;;2.30;0.55;;;12.60;96.20;;;;;;5026163;28;20068;-78
2020/12/23 12:03:07;;;;;;;2.15;0.68;;;12.60;96.30;;;;;;5022664;28;20033;-78
2020/12/23 12:05:33;;;;;;;1.05;0.68;;;12.60;96.30;;;;;;5036126;28;20040;-78
2020/12/23 12:08:03;;;;;;;1.55;0.70;;;12.60;96.40;;;;;;5039562;28;20040;-78
2020/12/23 12:10:28;;;;;;;1.00;0.50;;;12.50;96.30;;;;;;5024095;28;20139;-78
2020/12/23 12:12:54;;;;;;;1.10;0.60;;;12.50;96.30;;;;;;5028026;28;20115;-78
2020/12/23 12:15:19;;;;;;;2.97;0.80;;;12.50;96.30;;;;;;5024766;28;20029;-77
2020/12/23 12:17:45;;;;;;;1.70;0.50;;;12.40;96.30;;;;;;5033801;28;20076;-78
2020/12/23 12:20:10;;;;;;;1.50;0.80;;;12.40;96.40;;;;;;5026886;28;20131;-78
2020/12/23 12:22:36;;;;;;;1.38;0.57;;;12.40;96.40;;;;;;5039601;28;20475;-77
2020/12/23 12:25:01;;;;;;;1.50;0.60;;;12.30;96.50;;;;;;5030542;28;20040;-77
2020/12/23 12:27:28;;;;;;;1.70;0.70;;;12.30;96.60;;;;;;5034015;28;20383;-78
2020/12/23 12:29:53;;;;;;;1.50;0.80;;;12.30;96.60;;;;;;5035119;28;20387;-77
2020/12/23 12:32:19;;;;;;;0.98;0.65;;;12.20;96.60;;;;;;5030370;28;20032;-78
2020/12/23 12:34:44;;;;;;;3.08;0.85;;;12.20;96.70;;;;;;5019791;28;20120;-78
2020/12/23 12:37:10;;;;;;;1.02;0.70;;;12.20;96.80;;;;;;5019409;28;20384;-78